Terminal Aerodrome Forecast
Issued by NWS Pocatello, ID

Home | Current Version | Previous Version | Text Only | Print | Product List | Glossary On
Versions: 1 2 3 4 5 6 7 8 9 10 11 12 13
000
FTUS45 KPIH 302320
TAFIDA
TAF
KIDA 302320Z 0100/0124 36010G18KT P6SM SCT050 BKN080
     FM010200 02007KT P6SM SCT070
     FM012000 09010KT P6SM SKC=

USA.gov is the U.S. government's official web portal to all federal, state and local government web resources and services.